sensor_id;sensor_type;location;lat;lon;timestamp;P1;durP1;ratioP1;P2;durP2;ratioP2
67602;SDS011;54417;47.454;18.918;2023-03-21T00:04:19;9.98;;;6.60;;
67602;SDS011;54417;47.454;18.918;2023-03-21T00:09:44;14.95;;;7.45;;
67602;SDS011;54417;47.454;18.918;2023-03-21T00:15:09;9.73;;;6.65;;
67602;SDS011;54417;47.454;18.918;2023-03-21T00:20:34;8.13;;;5.45;;
67602;SDS011;54417;47.454;18.918;2023-03-21T00:26:00;10.48;;;5.93;;
67602;SDS011;54417;47.454;18.918;2023-03-21T00:31:24;8.57;;;6.00;;
67602;SDS011;54417;47.454;18.918;2023-03-21T00:36:48;8.27;;;5.97;;
67602;SDS011;54417;47.454;18.918;2023-03-21T00:42:14;11.70;;;7.43;;
67602;SDS011;54417;47.454;18.918;2023-03-21T00:47:37;12.65;;;6.00;;
67602;SDS011;54417;47.454;18.918;2023-03-21T00:53:01;6.85;;;5.22;;
67602;SDS011;54417;47.454;18.918;2023-03-21T00:58:27;9.57;;;6.00;;
67602;SDS011;54417;47.454;18.918;2023-03-21T01:03:50;12.32;;;6.18;;
67602;SDS011;54417;47.454;18.918;2023-03-21T01:09:25;11.73;;;5.43;;
67602;SDS011;54417;47.454;18.918;2023-03-21T01:14:51;6.35;;;5.07;;
67602;SDS011;54417;47.454;18.918;2023-03-21T01:20:15;6.85;;;5.80;;
67602;SDS011;54417;47.454;18.918;2023-03-21T01:25:38;5.47;;;4.97;;
67602;SDS011;54417;47.454;18.918;2023-03-21T01:31:04;8.30;;;5.60;;
67602;SDS011;54417;47.454;18.918;2023-03-21T01:36:29;7.07;;;6.13;;
67602;SDS011;54417;47.454;18.918;2023-03-21T01:41:59;7.33;;;5.73;;
67602;SDS011;54417;47.454;18.918;2023-03-21T01:47:25;7.18;;;5.78;;
67602;SDS011;54417;47.454;18.918;2023-03-21T01:53:12;7.57;;;5.78;;
67602;SDS011;54417;47.454;18.918;2023-03-21T01:58:36;8.98;;;6.55;;
67602;SDS011;54417;47.454;18.918;2023-03-21T02:04:19;10.65;;;6.80;;
67602;SDS011;54417;47.454;18.918;2023-03-21T02:10:10;11.73;;;6.65;;
67602;SDS011;54417;47.454;18.918;2023-03-21T02:15:41;8.48;;;6.30;;
67602;SDS011;54417;47.454;18.918;2023-03-21T02:21:25;8.00;;;6.78;;
67602;SDS011;54417;47.454;18.918;2023-03-21T02:27:11;10.48;;;6.50;;
67602;SDS011;54417;47.454;18.918;2023-03-21T02:32:40;7.38;;;6.35;;
67602;SDS011;54417;47.454;18.918;2023-03-21T02:38:17;12.57;;;7.00;;
67602;SDS011;54417;47.454;18.918;2023-03-21T02:43:50;6.93;;;6.00;;
67602;SDS011;54417;47.454;18.918;2023-03-21T02:49:21;7.57;;;6.20;;
67602;SDS011;54417;47.454;18.918;2023-03-21T02:54:50;7.18;;;6.47;;
67602;SDS011;54417;47.454;18.918;2023-03-21T03:00:19;11.82;;;6.53;;
67602;SDS011;54417;47.454;18.918;2023-03-21T03:05:47;8.25;;;6.32;;
67602;SDS011;54417;47.454;18.918;2023-03-21T03:11:19;7.03;;;6.30;;
67602;SDS011;54417;47.454;18.918;2023-03-21T03:16:52;8.35;;;6.82;;
67602;SDS011;54417;47.454;18.918;2023-03-21T03:22:22;11.35;;;7.30;;
67602;SDS011;54417;47.454;18.918;2023-03-21T03:27:51;8.68;;;6.45;;
67602;SDS011;54417;47.454;18.918;2023-03-21T03:33:19;8.32;;;6.85;;
67602;SDS011;54417;47.454;18.918;2023-03-21T03:38:45;6.78;;;6.10;;
67602;SDS011;54417;47.454;18.918;2023-03-21T03:44:13;10.05;;;6.07;;
67602;SDS011;54417;47.454;18.918;2023-03-21T03:49:45;7.97;;;5.82;;
67602;SDS011;54417;47.454;18.918;2023-03-21T03:55:13;11.43;;;7.15;;
67602;SDS011;54417;47.454;18.918;2023-03-21T04:00:44;6.18;;;5.30;;
67602;SDS011;54417;47.454;18.918;2023-03-21T04:06:08;9.70;;;5.10;;
67602;SDS011;54417;47.454;18.918;2023-03-21T04:11:32;4.75;;;4.30;;
67602;SDS011;54417;47.454;18.918;2023-03-21T04:16:58;7.65;;;5.22;;
67602;SDS011;54417;47.454;18.918;2023-03-21T04:22:22;6.95;;;5.22;;
67602;SDS011;54417;47.454;18.918;2023-03-21T04:27:47;6.25;;;4.68;;
67602;SDS011;54417;47.454;18.918;2023-03-21T04:33:29;6.13;;;4.00;;
67602;SDS011;54417;47.454;18.918;2023-03-21T04:38:53;5.55;;;4.38;;
67602;SDS011;54417;47.454;18.918;2023-03-21T04:44:18;5.15;;;3.72;;
67602;SDS011;54417;47.454;18.918;2023-03-21T04:49:44;6.28;;;4.15;;
67602;SDS011;54417;47.454;18.918;2023-03-21T04:55:09;6.72;;;4.28;;
67602;SDS011;54417;47.454;18.918;2023-03-21T05:00:33;8.30;;;4.45;;
67602;SDS011;54417;47.454;18.918;2023-03-21T05:06:01;7.95;;;5.00;;
67602;SDS011;54417;47.454;18.918;2023-03-21T05:11:25;6.68;;;5.15;;
67602;SDS011;54417;47.454;18.918;2023-03-21T05:16:49;8.52;;;5.68;;
67602;SDS011;54417;47.454;18.918;2023-03-21T05:22:19;8.70;;;5.10;;
67602;SDS011;54417;47.454;18.918;2023-03-21T05:27:43;9.45;;;6.75;;
67602;SDS011;54417;47.454;18.918;2023-03-21T05:33:09;7.53;;;6.00;;
67602;SDS011;54417;47.454;18.918;2023-03-21T05:38:35;6.28;;;5.53;;
67602;SDS011;54417;47.454;18.918;2023-03-21T05:43:59;8.40;;;5.43;;
67602;SDS011;54417;47.454;18.918;2023-03-21T05:49:23;8.07;;;6.13;;
67602;SDS011;54417;47.454;18.918;2023-03-21T05:54:54;8.23;;;6.10;;
67602;SDS011;54417;47.454;18.918;2023-03-21T06:00:19;10.30;;;6.00;;
67602;SDS011;54417;47.454;18.918;2023-03-21T06:05:59;19.98;;;7.88;;
67602;SDS011;54417;47.454;18.918;2023-03-21T06:17:35;6.18;;;4.80;;
67602;SDS011;54417;47.454;18.918;2023-03-21T06:23:03;6.70;;;5.20;;
67602;SDS011;54417;47.454;18.918;2023-03-21T06:28:29;8.45;;;5.30;;
67602;SDS011;54417;47.454;18.918;2023-03-21T06:33:53;6.43;;;5.07;;
67602;SDS011;54417;47.454;18.918;2023-03-21T06:39:17;14.20;;;6.93;;
67602;SDS011;54417;47.454;18.918;2023-03-21T06:44:44;8.82;;;5.88;;
67602;SDS011;54417;47.454;18.918;2023-03-21T06:50:10;8.02;;;5.57;;
67602;SDS011;54417;47.454;18.918;2023-03-21T06:55:36;7.68;;;5.82;;
67602;SDS011;54417;47.454;18.918;2023-03-21T07:01:02;5.57;;;3.65;;
67602;SDS011;54417;47.454;18.918;2023-03-21T07:06:31;4.57;;;3.60;;
67602;SDS011;54417;47.454;18.918;2023-03-21T07:11:55;5.32;;;3.85;;
67602;SDS011;54417;47.454;18.918;2023-03-21T07:17:29;6.57;;;4.65;;
67602;SDS011;54417;47.454;18.918;2023-03-21T07:22:55;9.32;;;4.82;;
67602;SDS011;54417;47.454;18.918;2023-03-21T07:28:21;8.02;;;4.40;;
67602;SDS011;54417;47.454;18.918;2023-03-21T07:33:47;4.55;;;4.15;;
67602;SDS011;54417;47.454;18.918;2023-03-21T07:39:10;6.38;;;4.07;;
67602;SDS011;54417;47.454;18.918;2023-03-21T07:44:35;8.40;;;4.78;;
67602;SDS011;54417;47.454;18.918;2023-03-21T07:50:00;6.65;;;4.10;;
67602;SDS011;54417;47.454;18.918;2023-03-21T07:55:25;6.47;;;4.30;;
67602;SDS011;54417;47.454;18.918;2023-03-21T08:00:50;5.68;;;4.10;;
67602;SDS011;54417;47.454;18.918;2023-03-21T08:06:15;6.18;;;4.68;;
67602;SDS011;54417;47.454;18.918;2023-03-21T08:11:39;13.75;;;4.78;;
67602;SDS011;54417;47.454;18.918;2023-03-21T08:17:03;5.20;;;3.88;;
67602;SDS011;54417;47.454;18.918;2023-03-21T08:22:29;5.18;;;3.67;;
67602;SDS011;54417;47.454;18.918;2023-03-21T08:27:56;4.22;;;3.78;;
67602;SDS011;54417;47.454;18.918;2023-03-21T08:33:20;5.90;;;3.90;;
67602;SDS011;54417;47.454;18.918;2023-03-21T08:38:46;3.97;;;3.58;;
67602;SDS011;54417;47.454;18.918;2023-03-21T08:44:10;4.68;;;3.83;;
67602;SDS011;54417;47.454;18.918;2023-03-21T08:49:33;13.50;;;4.40;;
67602;SDS011;54417;47.454;18.918;2023-03-21T08:54:59;5.20;;;3.45;;
67602;SDS011;54417;47.454;18.918;2023-03-21T09:00:24;5.90;;;3.67;;
67602;SDS011;54417;47.454;18.918;2023-03-21T09:05:48;9.32;;;4.68;;
67602;SDS011;54417;47.454;18.918;2023-03-21T09:11:16;5.05;;;4.20;;
67602;SDS011;54417;47.454;18.918;2023-03-21T09:16:40;9.00;;;5.32;;
67602;SDS011;54417;47.454;18.918;2023-03-21T09:22:03;6.70;;;4.80;;
67602;SDS011;54417;47.454;18.918;2023-03-21T09:27:33;4.55;;;3.50;;
67602;SDS011;54417;47.454;18.918;2023-03-21T09:32:58;4.55;;;3.42;;
67602;SDS011;54417;47.454;18.918;2023-03-21T09:38:22;4.90;;;4.40;;
67602;SDS011;54417;47.454;18.918;2023-03-21T09:43:57;6.97;;;4.45;;
67602;SDS011;54417;47.454;18.918;2023-03-21T09:49:29;4.93;;;4.43;;
67602;SDS011;54417;47.454;18.918;2023-03-21T09:54:55;7.70;;;5.03;;
67602;SDS011;54417;47.454;18.918;2023-03-21T10:00:23;3.58;;;2.85;;
67602;SDS011;54417;47.454;18.918;2023-03-21T10:05:51;8.70;;;3.53;;
67602;SDS011;54417;47.454;18.918;2023-03-21T10:11:19;3.85;;;3.25;;
67602;SDS011;54417;47.454;18.918;2023-03-21T10:16:49;2.35;;;2.15;;
67602;SDS011;54417;47.454;18.918;2023-03-21T10:22:16;3.40;;;2.27;;
67602;SDS011;54417;47.454;18.918;2023-03-21T10:27:40;5.35;;;3.50;;
67602;SDS011;54417;47.454;18.918;2023-03-21T10:33:06;7.68;;;2.40;;
67602;SDS011;54417;47.454;18.918;2023-03-21T10:38:33;3.00;;;2.08;;
67602;SDS011;54417;47.454;18.918;2023-03-21T10:44:05;1.92;;;1.70;;
67602;SDS011;54417;47.454;18.918;2023-03-21T10:49:31;4.73;;;3.10;;
67602;SDS011;54417;47.454;18.918;2023-03-21T11:00:40;1.90;;;1.80;;
67602;SDS011;54417;47.454;18.918;2023-03-21T11:06:10;2.58;;;1.83;;
67602;SDS011;54417;47.454;18.918;2023-03-21T11:11:37;2.80;;;2.20;;
67602;SDS011;54417;47.454;18.918;2023-03-21T11:17:06;3.85;;;2.60;;
67602;SDS011;54417;47.454;18.918;2023-03-21T11:22:43;1.95;;;1.85;;
67602;SDS011;54417;47.454;18.918;2023-03-21T11:28:08;10.90;;;2.75;;
67602;SDS011;54417;47.454;18.918;2023-03-21T11:33:36;2.22;;;2.03;;
67602;SDS011;54417;47.454;18.918;2023-03-21T11:39:13;3.20;;;2.40;;
67602;SDS011;54417;47.454;18.918;2023-03-21T11:44:49;2.72;;;2.33;;
67602;SDS011;54417;47.454;18.918;2023-03-21T11:50:26;5.65;;;2.20;;
67602;SDS011;54417;47.454;18.918;2023-03-21T11:56:01;2.83;;;1.83;;
67602;SDS011;54417;47.454;18.918;2023-03-21T12:01:49;3.15;;;2.50;;
67602;SDS011;54417;47.454;18.918;2023-03-21T12:07:25;3.08;;;2.50;;
67602;SDS011;54417;47.454;18.918;2023-03-21T12:12:57;2.35;;;2.05;;
67602;SDS011;54417;47.454;18.918;2023-03-21T12:18:36;3.20;;;2.80;;
67602;SDS011;54417;47.454;18.918;2023-03-21T12:24:13;3.00;;;2.67;;
67602;SDS011;54417;47.454;18.918;2023-03-21T12:29:54;4.28;;;2.17;;
67602;SDS011;54417;47.454;18.918;2023-03-21T12:35:38;2.88;;;2.03;;
67602;SDS011;54417;47.454;18.918;2023-03-21T12:41:16;7.88;;;2.55;;
67602;SDS011;54417;47.454;18.918;2023-03-21T12:46:49;2.72;;;2.35;;
67602;SDS011;54417;47.454;18.918;2023-03-21T12:52:18;2.97;;;1.90;;
67602;SDS011;54417;47.454;18.918;2023-03-21T12:57:47;2.08;;;1.83;;
67602;SDS011;54417;47.454;18.918;2023-03-21T13:03:20;1.58;;;1.48;;
67602;SDS011;54417;47.454;18.918;2023-03-21T13:09:01;2.75;;;2.00;;
67602;SDS011;54417;47.454;18.918;2023-03-21T13:14:33;3.15;;;2.17;;
67602;SDS011;54417;47.454;18.918;2023-03-21T13:20:03;1.90;;;1.70;;
67602;SDS011;54417;47.454;18.918;2023-03-21T13:25:39;3.65;;;1.88;;
67602;SDS011;54417;47.454;18.918;2023-03-21T13:31:18;3.10;;;1.80;;
67602;SDS011;54417;47.454;18.918;2023-03-21T13:36:45;1.50;;;1.40;;
67602;SDS011;54417;47.454;18.918;2023-03-21T13:42:16;3.00;;;1.50;;
67602;SDS011;54417;47.454;18.918;2023-03-21T13:47:50;2.25;;;1.50;;
67602;SDS011;54417;47.454;18.918;2023-03-21T13:58:59;12.18;;;4.97;;
67602;SDS011;54417;47.454;18.918;2023-03-21T14:04:24;1.40;;;1.30;;
67602;SDS011;54417;47.454;18.918;2023-03-21T14:10:05;1.67;;;1.52;;
67602;SDS011;54417;47.454;18.918;2023-03-21T14:15:41;3.47;;;1.80;;
67602;SDS011;54417;47.454;18.918;2023-03-21T14:21:18;1.90;;;1.60;;
67602;SDS011;54417;47.454;18.918;2023-03-21T14:26:48;1.60;;;1.50;;
67602;SDS011;54417;47.454;18.918;2023-03-21T14:32:14;2.20;;;2.00;;
67602;SDS011;54417;47.454;18.918;2023-03-21T14:37:44;3.60;;;2.00;;
67602;SDS011;54417;47.454;18.918;2023-03-21T14:43:10;1.95;;;1.80;;
67602;SDS011;54417;47.454;18.918;2023-03-21T14:48:35;3.45;;;1.40;;
67602;SDS011;54417;47.454;18.918;2023-03-21T14:53:58;2.53;;;1.70;;
67602;SDS011;54417;47.454;18.918;2023-03-21T14:59:24;2.20;;;1.70;;
67602;SDS011;54417;47.454;18.918;2023-03-21T15:04:55;1.85;;;1.75;;
67602;SDS011;54417;47.454;18.918;2023-03-21T15:10:21;4.10;;;2.10;;
67602;SDS011;54417;47.454;18.918;2023-03-21T15:15:48;4.13;;;2.17;;
67602;SDS011;54417;47.454;18.918;2023-03-21T15:21:14;2.85;;;1.73;;
67602;SDS011;54417;47.454;18.918;2023-03-21T15:26:42;3.95;;;2.17;;
67602;SDS011;54417;47.454;18.918;2023-03-21T15:32:13;3.72;;;2.15;;
67602;SDS011;54417;47.454;18.918;2023-03-21T15:37:39;3.03;;;1.88;;
67602;SDS011;54417;47.454;18.918;2023-03-21T15:43:04;2.28;;;2.08;;
67602;SDS011;54417;47.454;18.918;2023-03-21T15:48:32;4.05;;;2.25;;
67602;SDS011;54417;47.454;18.918;2023-03-21T15:53:56;4.70;;;2.58;;
67602;SDS011;54417;47.454;18.918;2023-03-21T15:59:30;2.47;;;2.25;;
67602;SDS011;54417;47.454;18.918;2023-03-21T16:05:18;3.40;;;2.83;;
67602;SDS011;54417;47.454;18.918;2023-03-21T16:10:45;3.35;;;2.50;;
67602;SDS011;54417;47.454;18.918;2023-03-21T16:16:13;2.90;;;2.47;;
67602;SDS011;54417;47.454;18.918;2023-03-21T16:21:40;3.33;;;2.45;;
67602;SDS011;54417;47.454;18.918;2023-03-21T16:27:04;3.58;;;2.50;;
67602;SDS011;54417;47.454;18.918;2023-03-21T16:32:28;4.82;;;2.95;;
67602;SDS011;54417;47.454;18.918;2023-03-21T16:37:53;7.30;;;2.70;;
67602;SDS011;54417;47.454;18.918;2023-03-21T16:43:17;4.50;;;3.05;;
67602;SDS011;54417;47.454;18.918;2023-03-21T16:48:42;4.15;;;2.90;;
67602;SDS011;54417;47.454;18.918;2023-03-21T16:54:08;4.18;;;2.72;;
67602;SDS011;54417;47.454;18.918;2023-03-21T16:59:33;4.15;;;3.10;;
67602;SDS011;54417;47.454;18.918;2023-03-21T17:04:57;4.45;;;3.10;;
67602;SDS011;54417;47.454;18.918;2023-03-21T17:10:23;6.45;;;2.78;;
67602;SDS011;54417;47.454;18.918;2023-03-21T17:15:47;3.70;;;2.85;;
67602;SDS011;54417;47.454;18.918;2023-03-21T17:21:12;3.58;;;2.90;;
67602;SDS011;54417;47.454;18.918;2023-03-21T17:26:39;3.55;;;2.85;;
67602;SDS011;54417;47.454;18.918;2023-03-21T17:32:03;8.48;;;4.25;;
67602;SDS011;54417;47.454;18.918;2023-03-21T17:37:27;7.05;;;3.70;;
67602;SDS011;54417;47.454;18.918;2023-03-21T17:42:53;4.75;;;4.00;;
67602;SDS011;54417;47.454;18.918;2023-03-21T17:48:17;8.93;;;4.25;;
67602;SDS011;54417;47.454;18.918;2023-03-21T17:53:41;4.57;;;3.20;;
67602;SDS011;54417;47.454;18.918;2023-03-21T17:59:09;3.90;;;3.50;;
67602;SDS011;54417;47.454;18.918;2023-03-21T18:04:34;6.13;;;3.97;;
67602;SDS011;54417;47.454;18.918;2023-03-21T18:10:00;7.60;;;3.95;;
67602;SDS011;54417;47.454;18.918;2023-03-21T18:15:26;5.22;;;3.92;;
67602;SDS011;54417;47.454;18.918;2023-03-21T18:20:51;11.60;;;5.07;;
67602;SDS011;54417;47.454;18.918;2023-03-21T18:26:19;15.32;;;7.93;;
67602;SDS011;54417;47.454;18.918;2023-03-21T18:31:46;4.93;;;3.22;;
67602;SDS011;54417;47.454;18.918;2023-03-21T18:37:26;4.80;;;3.63;;
67602;SDS011;54417;47.454;18.918;2023-03-21T18:42:52;5.13;;;3.55;;
67602;SDS011;54417;47.454;18.918;2023-03-21T18:48:38;5.25;;;3.13;;
67602;SDS011;54417;47.454;18.918;2023-03-21T18:54:03;9.65;;;3.60;;
67602;SDS011;54417;47.454;18.918;2023-03-21T18:59:27;5.35;;;3.13;;
67602;SDS011;54417;47.454;18.918;2023-03-21T19:04:53;7.20;;;3.50;;
67602;SDS011;54417;47.454;18.918;2023-03-21T19:10:19;6.72;;;3.53;;
67602;SDS011;54417;47.454;18.918;2023-03-21T19:15:44;5.97;;;3.75;;
67602;SDS011;54417;47.454;18.918;2023-03-21T19:21:12;6.80;;;4.30;;
67602;SDS011;54417;47.454;18.918;2023-03-21T19:26:36;12.45;;;5.50;;
67602;SDS011;54417;47.454;18.918;2023-03-21T19:32:00;12.65;;;4.30;;
67602;SDS011;54417;47.454;18.918;2023-03-21T19:37:25;5.55;;;4.35;;
67602;SDS011;54417;47.454;18.918;2023-03-21T19:42:49;5.32;;;4.20;;
67602;SDS011;54417;47.454;18.918;2023-03-21T19:48:13;7.80;;;4.78;;
67602;SDS011;54417;47.454;18.918;2023-03-21T19:53:40;8.43;;;4.32;;
67602;SDS011;54417;47.454;18.918;2023-03-21T19:59:03;10.50;;;5.63;;
67602;SDS011;54417;47.454;18.918;2023-03-21T20:04:29;5.78;;;3.70;;
67602;SDS011;54417;47.454;18.918;2023-03-21T20:09:54;4.88;;;3.25;;
67602;SDS011;54417;47.454;18.918;2023-03-21T20:15:18;4.50;;;3.53;;
67602;SDS011;54417;47.454;18.918;2023-03-21T20:20:46;7.05;;;3.05;;
67602;SDS011;54417;47.454;18.918;2023-03-21T20:26:12;5.85;;;3.83;;
67602;SDS011;54417;47.454;18.918;2023-03-21T20:31:36;8.40;;;3.58;;
67602;SDS011;54417;47.454;18.918;2023-03-21T20:37:01;7.47;;;3.70;;
67602;SDS011;54417;47.454;18.918;2023-03-21T20:42:28;7.65;;;3.80;;
67602;SDS011;54417;47.454;18.918;2023-03-21T20:47:52;8.90;;;4.63;;
67602;SDS011;54417;47.454;18.918;2023-03-21T20:53:16;6.97;;;3.95;;
67602;SDS011;54417;47.454;18.918;2023-03-21T20:58:41;6.07;;;3.95;;
67602;SDS011;54417;47.454;18.918;2023-03-21T21:04:26;4.80;;;3.90;;
67602;SDS011;54417;47.454;18.918;2023-03-21T21:10:12;8.15;;;4.13;;
67602;SDS011;54417;47.454;18.918;2023-03-21T21:15:39;7.72;;;4.90;;
67602;SDS011;54417;47.454;18.918;2023-03-21T21:21:03;6.50;;;3.83;;
67602;SDS011;54417;47.454;18.918;2023-03-21T21:26:28;10.40;;;4.72;;
67602;SDS011;54417;47.454;18.918;2023-03-21T21:31:53;7.97;;;5.30;;
67602;SDS011;54417;47.454;18.918;2023-03-21T21:37:17;9.02;;;6.13;;
67602;SDS011;54417;47.454;18.918;2023-03-21T21:42:42;15.88;;;6.38;;
67602;SDS011;54417;47.454;18.918;2023-03-21T21:48:07;13.10;;;7.13;;
67602;SDS011;54417;47.454;18.918;2023-03-21T21:53:32;12.27;;;6.75;;
67602;SDS011;54417;47.454;18.918;2023-03-21T21:58:57;12.27;;;6.88;;
67602;SDS011;54417;47.454;18.918;2023-03-21T22:04:24;10.90;;;6.32;;
67602;SDS011;54417;47.454;18.918;2023-03-21T22:09:50;9.32;;;5.82;;
67602;SDS011;54417;47.454;18.918;2023-03-21T22:15:13;13.57;;;5.80;;
67602;SDS011;54417;47.454;18.918;2023-03-21T22:20:40;9.02;;;5.45;;
67602;SDS011;54417;47.454;18.918;2023-03-21T22:26:04;8.20;;;5.47;;
67602;SDS011;54417;47.454;18.918;2023-03-21T22:31:28;10.30;;;5.70;;
67602;SDS011;54417;47.454;18.918;2023-03-21T22:36:53;7.20;;;5.40;;
67602;SDS011;54417;47.454;18.918;2023-03-21T22:42:18;8.02;;;5.32;;
67602;SDS011;54417;47.454;18.918;2023-03-21T22:47:42;8.48;;;6.13;;
67602;SDS011;54417;47.454;18.918;2023-03-21T22:53:07;8.15;;;6.13;;
67602;SDS011;54417;47.454;18.918;2023-03-21T22:58:31;9.68;;;6.07;;
67602;SDS011;54417;47.454;18.918;2023-03-21T23:03:54;9.52;;;6.15;;
67602;SDS011;54417;47.454;18.918;2023-03-21T23:09:20;12.57;;;6.90;;
67602;SDS011;54417;47.454;18.918;2023-03-21T23:14:43;7.10;;;6.07;;
67602;SDS011;54417;47.454;18.918;2023-03-21T23:20:07;8.80;;;6.05;;
67602;SDS011;54417;47.454;18.918;2023-03-21T23:25:33;16.17;;;8.80;;
67602;SDS011;54417;47.454;18.918;2023-03-21T23:31:04;10.48;;;6.80;;
67602;SDS011;54417;47.454;18.918;2023-03-21T23:36:29;9.27;;;6.53;;
67602;SDS011;54417;47.454;18.918;2023-03-21T23:41:54;12.07;;;7.30;;
67602;SDS011;54417;47.454;18.918;2023-03-21T23:47:19;17.05;;;8.70;;
67602;SDS011;54417;47.454;18.918;2023-03-21T23:52:43;9.40;;;6.30;;
67602;SDS011;54417;47.454;18.918;2023-03-21T23:58:11;8.70;;;6.28;;
